sensor_id;sensor_type;location;lat;lon;timestamp;pressure;altitude;pressure_sealevel;temperature;humidity
49063;BME280;34876;51.464;-0.150;2022-09-12T00:03:46;101401.53;;;22.65;51.69
49063;BME280;34876;51.464;-0.150;2022-09-12T00:06:18;101400.26;;;22.64;51.74
49063;BME280;34876;51.464;-0.150;2022-09-12T00:08:47;101397.21;;;22.63;51.77
49063;BME280;34876;51.464;-0.150;2022-09-12T00:11:16;101394.41;;;22.61;51.80
49063;BME280;34876;51.464;-0.150;2022-09-12T00:13:46;101391.98;;;22.62;51.78
49063;BME280;34876;51.464;-0.150;2022-09-12T00:16:18;101385.80;;;22.62;51.80
49063;BME280;34876;51.464;-0.150;2022-09-12T00:18:47;101379.42;;;22.62;51.77
49063;BME280;34876;51.464;-0.150;2022-09-12T00:21:18;101380.57;;;22.62;51.81
49063;BME280;34876;51.464;-0.150;2022-09-12T00:23:48;101376.09;;;22.63;51.77
49063;BME280;34876;51.464;-0.150;2022-09-12T00:26:18;101374.77;;;22.63;51.78
49063;BME280;34876;51.464;-0.150;2022-09-12T00:28:47;101372.51;;;22.62;51.78
49063;BME280;34876;51.464;-0.150;2022-09-12T00:31:19;101371.81;;;22.63;51.76
49063;BME280;34876;51.464;-0.150;2022-09-12T00:33:49;101367.26;;;22.63;51.76
49063;BME280;34876;51.464;-0.150;2022-09-12T00:36:21;101360.99;;;22.65;51.73
49063;BME280;34876;51.464;-0.150;2022-09-12T00:38:50;101361.16;;;22.65;51.72
49063;BME280;34876;51.464;-0.150;2022-09-12T00:41:23;101356.80;;;22.66;51.71
49063;BME280;34876;51.464;-0.150;2022-09-12T00:43:55;101351.20;;;22.66;51.71
49063;BME280;34876;51.464;-0.150;2022-09-12T00:46:29;101350.33;;;22.66;51.69
49063;BME280;34876;51.464;-0.150;2022-09-12T00:49:02;101351.47;;;22.67;51.69
49063;BME280;34876;51.464;-0.150;2022-09-12T00:51:36;101352.42;;;22.67;51.70
49063;BME280;34876;51.464;-0.150;2022-09-12T00:54:09;101352.03;;;22.68;51.67
49063;BME280;34876;51.464;-0.150;2022-09-12T00:56:41;101352.46;;;22.67;51.70
49063;BME280;34876;51.464;-0.150;2022-09-12T00:59:14;101351.39;;;22.68;51.69
49063;BME280;34876;51.464;-0.150;2022-09-12T01:01:48;101345.13;;;22.70;51.66
49063;BME280;34876;51.464;-0.150;2022-09-12T01:04:21;101345.21;;;22.71;51.62
49063;BME280;34876;51.464;-0.150;2022-09-12T01:06:51;101345.37;;;22.71;51.65
49063;BME280;34876;51.464;-0.150;2022-09-12T01:09:22;101344.52;;;22.71;51.65
49063;BME280;34876;51.464;-0.150;2022-09-12T01:11:52;101342.84;;;22.71;51.66
49063;BME280;34876;51.464;-0.150;2022-09-12T01:14:23;101341.27;;;22.71;51.69
49063;BME280;34876;51.464;-0.150;2022-09-12T01:16:53;101340.60;;;22.72;51.66
49063;BME280;34876;51.464;-0.150;2022-09-12T01:19:39;101335.41;;;22.71;51.69
49063;BME280;34876;51.464;-0.150;2022-09-12T01:22:33;101331.67;;;22.72;51.69
49063;BME280;34876;51.464;-0.150;2022-09-12T01:25:09;101330.99;;;22.72;51.71
49063;BME280;34876;51.464;-0.150;2022-09-12T01:28:01;101329.73;;;22.73;51.67
49063;BME280;34876;51.464;-0.150;2022-09-12T01:30:45;101331.24;;;22.74;51.68
49063;BME280;34876;51.464;-0.150;2022-09-12T01:33:36;101328.92;;;22.33;53.73
49063;BME280;34876;51.464;-0.150;2022-09-12T01:36:26;101323.79;;;22.27;54.22
49063;BME280;34876;51.464;-0.150;2022-09-12T01:39:01;101318.96;;;22.54;53.16
49063;BME280;34876;51.464;-0.150;2022-09-12T01:41:40;101314.45;;;22.63;52.71
49063;BME280;34876;51.464;-0.150;2022-09-12T01:44:17;101312.84;;;22.66;52.55
49063;BME280;34876;51.464;-0.150;2022-09-12T01:46:54;101315.77;;;22.69;52.40
49063;BME280;34876;51.464;-0.150;2022-09-12T01:49:32;101316.75;;;22.70;52.34
49063;BME280;34876;51.464;-0.150;2022-09-12T01:52:10;101313.11;;;22.72;52.25
49063;BME280;34876;51.464;-0.150;2022-09-12T01:54:45;101306.77;;;22.72;52.21
49063;BME280;34876;51.464;-0.150;2022-09-12T01:57:21;101304.87;;;22.72;52.20
49063;BME280;34876;51.464;-0.150;2022-09-12T01:59:55;101302.58;;;22.71;52.26
49063;BME280;34876;51.464;-0.150;2022-09-12T02:02:30;101307.19;;;22.71;52.26
49063;BME280;34876;51.464;-0.150;2022-09-12T02:05:05;101303.40;;;22.72;52.22
49063;BME280;34876;51.464;-0.150;2022-09-12T02:07:39;101301.71;;;22.72;52.23
49063;BME280;34876;51.464;-0.150;2022-09-12T02:10:15;101300.75;;;22.72;52.22
49063;BME280;34876;51.464;-0.150;2022-09-12T02:12:49;101297.40;;;22.71;52.24
49063;BME280;34876;51.464;-0.150;2022-09-12T02:15:23;101291.25;;;22.71;52.24
49063;BME280;34876;51.464;-0.150;2022-09-12T02:17:55;101284.84;;;22.71;52.22
49063;BME280;34876;51.464;-0.150;2022-09-12T02:20:29;101285.72;;;22.72;52.22
49063;BME280;34876;51.464;-0.150;2022-09-12T02:22:59;101283.92;;;22.72;52.20
49063;BME280;34876;51.464;-0.150;2022-09-12T02:25:29;101282.15;;;22.74;52.18
49063;BME280;34876;51.464;-0.150;2022-09-12T02:28:02;101276.12;;;22.74;52.17
49063;BME280;34876;51.464;-0.150;2022-09-12T02:30:43;101273.36;;;22.73;52.20
49063;BME280;34876;51.464;-0.150;2022-09-12T02:33:19;101271.92;;;22.74;52.17
49063;BME280;34876;51.464;-0.150;2022-09-12T02:35:56;101269.83;;;22.72;52.21
49063;BME280;34876;51.464;-0.150;2022-09-12T02:38:32;101264.21;;;22.73;52.21
49063;BME280;34876;51.464;-0.150;2022-09-12T02:41:05;101257.90;;;22.73;52.19
49063;BME280;34876;51.464;-0.150;2022-09-12T02:43:34;101253.28;;;22.74;52.18
49063;BME280;34876;51.464;-0.150;2022-09-12T02:46:04;101252.99;;;22.73;52.22
49063;BME280;34876;51.464;-0.150;2022-09-12T02:48:38;101248.81;;;22.73;52.20
49063;BME280;34876;51.464;-0.150;2022-09-12T02:51:08;101245.05;;;22.73;52.22
49063;BME280;34876;51.464;-0.150;2022-09-12T02:53:38;101240.98;;;22.73;52.22
49063;BME280;34876;51.464;-0.150;2022-09-12T02:56:13;101244.50;;;22.73;52.25
49063;BME280;34876;51.464;-0.150;2022-09-12T02:58:45;101239.76;;;22.73;52.22
49063;BME280;34876;51.464;-0.150;2022-09-12T03:01:22;101239.73;;;22.73;52.22
49063;BME280;34876;51.464;-0.150;2022-09-12T03:04:04;101240.48;;;22.76;52.14
49063;BME280;34876;51.464;-0.150;2022-09-12T03:06:49;101241.71;;;22.77;52.10
49063;BME280;34876;51.464;-0.150;2022-09-12T03:09:26;101239.80;;;22.79;52.06
49063;BME280;34876;51.464;-0.150;2022-09-12T03:12:07;101239.50;;;22.79;52.05
49063;BME280;34876;51.464;-0.150;2022-09-12T03:14:55;101237.76;;;22.78;52.07
49063;BME280;34876;51.464;-0.150;2022-09-12T03:17:36;101239.34;;;22.77;52.09
49063;BME280;34876;51.464;-0.150;2022-09-12T03:20:12;101233.23;;;22.78;52.09
49063;BME280;34876;51.464;-0.150;2022-09-12T03:22:50;101228.06;;;22.78;52.07
49063;BME280;34876;51.464;-0.150;2022-09-12T03:25:22;101228.48;;;22.80;52.05
49063;BME280;34876;51.464;-0.150;2022-09-12T03:27:57;101230.28;;;22.80;52.05
49063;BME280;34876;51.464;-0.150;2022-09-12T03:30:27;101233.42;;;22.81;52.02
49063;BME280;34876;51.464;-0.150;2022-09-12T03:32:56;101229.29;;;22.80;52.03
49063;BME280;34876;51.464;-0.150;2022-09-12T03:35:25;101226.30;;;22.81;52.03
49063;BME280;34876;51.464;-0.150;2022-09-12T03:37:54;101226.09;;;22.81;52.05
49063;BME280;34876;51.464;-0.150;2022-09-12T03:40:23;101229.13;;;22.79;52.09
49063;BME280;34876;51.464;-0.150;2022-09-12T03:42:52;101230.92;;;22.77;52.16
49063;BME280;34876;51.464;-0.150;2022-09-12T03:45:21;101227.68;;;22.77;52.15
49063;BME280;34876;51.464;-0.150;2022-09-12T03:47:51;101223.97;;;22.78;52.14
49063;BME280;34876;51.464;-0.150;2022-09-12T03:50:21;101222.00;;;22.78;52.14
49063;BME280;34876;51.464;-0.150;2022-09-12T03:52:50;101221.85;;;22.77;52.18
49063;BME280;34876;51.464;-0.150;2022-09-12T03:55:20;101218.82;;;22.76;52.20
49063;BME280;34876;51.464;-0.150;2022-09-12T03:57:51;101220.81;;;22.78;52.14
49063;BME280;34876;51.464;-0.150;2022-09-12T04:00:20;101217.37;;;22.79;52.13
49063;BME280;34876;51.464;-0.150;2022-09-12T04:02:53;101213.72;;;22.79;52.11
49063;BME280;34876;51.464;-0.150;2022-09-12T04:05:22;101207.14;;;22.79;52.12
49063;BME280;34876;51.464;-0.150;2022-09-12T04:07:52;101201.93;;;22.79;52.15
49063;BME280;34876;51.464;-0.150;2022-09-12T04:10:22;101199.74;;;22.78;52.17
49063;BME280;34876;51.464;-0.150;2022-09-12T04:12:51;101196.30;;;22.78;52.18
49063;BME280;34876;51.464;-0.150;2022-09-12T04:15:19;101195.56;;;22.77;52.20
49063;BME280;34876;51.464;-0.150;2022-09-12T04:17:48;101199.78;;;22.78;52.19
49063;BME280;34876;51.464;-0.150;2022-09-12T04:20:17;101193.62;;;22.78;52.19
49063;BME280;34876;51.464;-0.150;2022-09-12T04:22:46;101192.35;;;22.76;52.25
49063;BME280;34876;51.464;-0.150;2022-09-12T04:25:15;101194.81;;;22.76;52.24
49063;BME280;34876;51.464;-0.150;2022-09-12T04:27:44;101194.73;;;22.77;52.22
49063;BME280;34876;51.464;-0.150;2022-09-12T04:30:13;101191.92;;;22.78;52.20
49063;BME280;34876;51.464;-0.150;2022-09-12T04:32:41;101186.10;;;22.78;52.22
49063;BME280;34876;51.464;-0.150;2022-09-12T04:35:11;101186.59;;;22.76;52.27
49063;BME280;34876;51.464;-0.150;2022-09-12T04:37:40;101187.19;;;22.76;52.29
49063;BME280;34876;51.464;-0.150;2022-09-12T04:40:09;101185.63;;;22.76;52.27
49063;BME280;34876;51.464;-0.150;2022-09-12T04:42:38;101185.82;;;22.75;52.30
49063;BME280;34876;51.464;-0.150;2022-09-12T04:45:07;101183.15;;;22.76;52.26
49063;BME280;34876;51.464;-0.150;2022-09-12T04:47:37;101183.05;;;22.75;52.30
49063;BME280;34876;51.464;-0.150;2022-09-12T04:50:06;101181.94;;;22.75;52.30
49063;BME280;34876;51.464;-0.150;2022-09-12T04:52:35;101180.45;;;22.75;52.27
49063;BME280;34876;51.464;-0.150;2022-09-12T04:55:05;101182.63;;;22.75;52.31
49063;BME280;34876;51.464;-0.150;2022-09-12T04:57:35;101182.50;;;22.74;52.34
49063;BME280;34876;51.464;-0.150;2022-09-12T05:00:05;101182.64;;;22.74;52.33
49063;BME280;34876;51.464;-0.150;2022-09-12T05:02:34;101180.15;;;22.75;52.30
49063;BME280;34876;51.464;-0.150;2022-09-12T05:05:03;101177.10;;;22.75;52.30
49063;BME280;34876;51.464;-0.150;2022-09-12T05:07:32;101178.34;;;22.74;52.33
49063;BME280;34876;51.464;-0.150;2022-09-12T05:10:02;101180.15;;;22.76;52.30
49063;BME280;34876;51.464;-0.150;2022-09-12T05:12:31;101177.81;;;22.74;52.32
49063;BME280;34876;51.464;-0.150;2022-09-12T05:15:00;101180.06;;;22.75;52.29
49063;BME280;34876;51.464;-0.150;2022-09-12T05:17:30;101179.49;;;22.75;52.29
49063;BME280;34876;51.464;-0.150;2022-09-12T05:19:59;101180.60;;;22.76;52.27
49063;BME280;34876;51.464;-0.150;2022-09-12T05:22:28;101180.28;;;22.75;52.31
49063;BME280;34876;51.464;-0.150;2022-09-12T05:24:58;101181.91;;;22.74;52.33
49063;BME280;34876;51.464;-0.150;2022-09-12T05:27:27;101179.28;;;22.75;52.30
49063;BME280;34876;51.464;-0.150;2022-09-12T05:29:56;101181.82;;;22.75;52.30
49063;BME280;34876;51.464;-0.150;2022-09-12T05:32:25;101182.46;;;22.74;52.40
49063;BME280;34876;51.464;-0.150;2022-09-12T05:34:54;101185.48;;;22.75;52.31
49063;BME280;34876;51.464;-0.150;2022-09-12T05:37:23;101183.59;;;22.76;52.28
49063;BME280;34876;51.464;-0.150;2022-09-12T05:39:52;101186.42;;;22.75;52.31
49063;BME280;34876;51.464;-0.150;2022-09-12T05:42:20;101188.15;;;22.76;52.27
49063;BME280;34876;51.464;-0.150;2022-09-12T05:44:49;101190.67;;;22.77;52.26
49063;BME280;34876;51.464;-0.150;2022-09-12T05:47:18;101191.29;;;22.76;52.28
49063;BME280;34876;51.464;-0.150;2022-09-12T05:49:47;101190.84;;;22.77;52.27
49063;BME280;34876;51.464;-0.150;2022-09-12T05:52:16;101192.11;;;22.76;52.28
49063;BME280;34876;51.464;-0.150;2022-09-12T05:54:45;101194.76;;;22.77;52.27
49063;BME280;34876;51.464;-0.150;2022-09-12T05:57:15;101194.28;;;22.78;52.25
49063;BME280;34876;51.464;-0.150;2022-09-12T05:59:44;101192.18;;;22.79;52.22
49063;BME280;34876;51.464;-0.150;2022-09-12T06:02:13;101193.53;;;22.79;52.23
49063;BME280;34876;51.464;-0.150;2022-09-12T06:04:43;101196.43;;;22.77;52.26
49063;BME280;34876;51.464;-0.150;2022-09-12T06:07:12;101197.01;;;22.77;52.27
49063;BME280;34876;51.464;-0.150;2022-09-12T06:09:41;101200.52;;;22.76;52.31
49063;BME280;34876;51.464;-0.150;2022-09-12T06:12:10;101200.77;;;22.77;52.30
49063;BME280;34876;51.464;-0.150;2022-09-12T06:14:40;101197.67;;;22.76;52.29
49063;BME280;34876;51.464;-0.150;2022-09-12T06:17:10;101195.85;;;22.78;52.25
49063;BME280;34876;51.464;-0.150;2022-09-12T06:19:39;101190.61;;;22.80;52.21
49063;BME280;34876;51.464;-0.150;2022-09-12T06:22:08;101193.87;;;22.79;52.22
49063;BME280;34876;51.464;-0.150;2022-09-12T06:24:37;101196.09;;;22.80;52.22
49063;BME280;34876;51.464;-0.150;2022-09-12T06:27:06;101198.25;;;22.81;52.20
49063;BME280;34876;51.464;-0.150;2022-09-12T06:29:35;101195.52;;;22.82;52.18
49063;BME280;34876;51.464;-0.150;2022-09-12T06:32:04;101199.23;;;22.82;52.19
49063;BME280;34876;51.464;-0.150;2022-09-12T06:34:33;101201.43;;;22.83;52.16
49063;BME280;34876;51.464;-0.150;2022-09-12T06:37:02;101208.66;;;22.83;52.17
49063;BME280;34876;51.464;-0.150;2022-09-12T06:39:32;101211.99;;;22.83;52.17
49063;BME280;34876;51.464;-0.150;2022-09-12T06:42:02;101212.50;;;22.83;52.18
49063;BME280;34876;51.464;-0.150;2022-09-12T06:44:32;101214.50;;;22.84;52.18
49063;BME280;34876;51.464;-0.150;2022-09-12T06:47:01;101215.41;;;22.84;52.18
49063;BME280;34876;51.464;-0.150;2022-09-12T06:49:29;101218.28;;;22.83;52.20
49063;BME280;34876;51.464;-0.150;2022-09-12T06:51:59;101217.42;;;22.82;52.24
49063;BME280;34876;51.464;-0.150;2022-09-12T06:54:28;101216.15;;;22.84;52.19
49063;BME280;34876;51.464;-0.150;2022-09-12T06:56:57;101217.14;;;22.84;52.19
49063;BME280;34876;51.464;-0.150;2022-09-12T06:59:26;101214.40;;;22.84;52.21
49063;BME280;34876;51.464;-0.150;2022-09-12T07:01:55;101211.04;;;22.85;52.18
49063;BME280;34876;51.464;-0.150;2022-09-12T07:04:24;101208.83;;;22.86;52.17
49063;BME280;34876;51.464;-0.150;2022-09-12T07:06:53;101205.73;;;22.85;52.20
49063;BME280;34876;51.464;-0.150;2022-09-12T07:09:23;101205.00;;;22.88;52.15
49063;BME280;34876;51.464;-0.150;2022-09-12T07:11:51;101204.31;;;22.90;52.07
49063;BME280;34876;51.464;-0.150;2022-09-12T07:14:21;101205.61;;;22.88;52.15
49063;BME280;34876;51.464;-0.150;2022-09-12T07:16:50;101203.91;;;22.91;52.05
49063;BME280;34876;51.464;-0.150;2022-09-12T07:19:19;101202.21;;;22.93;52.00
49063;BME280;34876;51.464;-0.150;2022-09-12T07:21:50;101199.25;;;22.96;51.91
49063;BME280;34876;51.464;-0.150;2022-09-12T07:24:19;101201.94;;;22.96;51.92
49063;BME280;34876;51.464;-0.150;2022-09-12T07:26:48;101204.88;;;22.96;51.93
49063;BME280;34876;51.464;-0.150;2022-09-12T07:29:17;101210.42;;;22.93;52.02
49063;BME280;34876;51.464;-0.150;2022-09-12T07:31:47;101214.78;;;22.93;52.02
49063;BME280;34876;51.464;-0.150;2022-09-12T07:34:17;101212.57;;;22.93;52.03
49063;BME280;34876;51.464;-0.150;2022-09-12T07:36:46;101211.21;;;22.95;52.00
49063;BME280;34876;51.464;-0.150;2022-09-12T07:39:15;101209.16;;;22.94;52.02
49063;BME280;34876;51.464;-0.150;2022-09-12T07:41:45;101212.07;;;22.95;52.04
49063;BME280;34876;51.464;-0.150;2022-09-12T07:44:13;101214.05;;;22.98;51.92
49063;BME280;34876;51.464;-0.150;2022-09-12T07:46:43;101213.76;;;22.97;51.95
49063;BME280;34876;51.464;-0.150;2022-09-12T07:49:13;101211.58;;;22.98;51.97
49063;BME280;34876;51.464;-0.150;2022-09-12T07:51:42;101215.02;;;23.00;51.91
49063;BME280;34876;51.464;-0.150;2022-09-12T07:54:10;101216.15;;;23.04;51.81
49063;BME280;34876;51.464;-0.150;2022-09-12T07:56:39;101218.25;;;23.04;51.80
49063;BME280;34876;51.464;-0.150;2022-09-12T07:59:09;101217.23;;;23.06;51.76
49063;BME280;34876;51.464;-0.150;2022-09-12T08:01:38;101215.45;;;23.12;51.60
49063;BME280;34876;51.464;-0.150;2022-09-12T08:04:07;101214.77;;;23.09;51.68
49063;BME280;34876;51.464;-0.150;2022-09-12T08:06:36;101216.54;;;23.07;51.77
49063;BME280;34876;51.464;-0.150;2022-09-12T08:09:05;101212.55;;;23.07;51.76
49063;BME280;34876;51.464;-0.150;2022-09-12T08:11:35;101209.36;;;23.06;51.78
49063;BME280;34876;51.464;-0.150;2022-09-12T08:14:04;101205.49;;;23.09;51.70
49063;BME280;34876;51.464;-0.150;2022-09-12T08:16:34;101202.19;;;23.09;51.70
49063;BME280;34876;51.464;-0.150;2022-09-12T08:19:04;101198.95;;;23.11;51.67
49063;BME280;34876;51.464;-0.150;2022-09-12T08:21:33;101193.79;;;23.17;51.52
49063;BME280;34876;51.464;-0.150;2022-09-12T08:24:04;101191.12;;;23.34;51.04
49063;BME280;34876;51.464;-0.150;2022-09-12T08:26:35;101191.29;;;23.34;51.03
49063;BME280;34876;51.464;-0.150;2022-09-12T08:29:04;101195.08;;;23.28;51.21
49063;BME280;34876;51.464;-0.150;2022-09-12T08:31:32;101201.24;;;23.29;51.18
49063;BME280;34876;51.464;-0.150;2022-09-12T08:34:02;101200.22;;;23.33;51.09
49063;BME280;34876;51.464;-0.150;2022-09-12T08:36:33;101201.19;;;23.42;50.84
49063;BME280;34876;51.464;-0.150;2022-09-12T08:39:04;101203.42;;;23.42;50.85
49063;BME280;34876;51.464;-0.150;2022-09-12T08:41:37;101200.80;;;23.35;51.00
49063;BME280;34876;51.464;-0.150;2022-09-12T08:44:26;101189.98;;;23.36;50.98
49063;BME280;34876;51.464;-0.150;2022-09-12T08:47:12;101198.64;;;23.32;51.10
49063;BME280;34876;51.464;-0.150;2022-09-12T08:49:50;101202.95;;;23.23;51.40
49063;BME280;34876;51.464;-0.150;2022-09-12T08:52:24;101205.62;;;23.30;51.17
49063;BME280;34876;51.464;-0.150;2022-09-12T08:54:56;101206.48;;;23.34;51.06
49063;BME280;34876;51.464;-0.150;2022-09-12T08:57:26;101206.50;;;23.34;51.07
49063;BME280;34876;51.464;-0.150;2022-09-12T08:59:55;101206.21;;;23.35;51.05
49063;BME280;34876;51.464;-0.150;2022-09-12T09:03:08;101192.87;;;23.46;50.78
49063;BME280;34876;51.464;-0.150;2022-09-12T09:05:49;101188.64;;;23.51;50.62
49063;BME280;34876;51.464;-0.150;2022-09-12T09:08:32;101184.91;;;23.48;50.68
49063;BME280;34876;51.464;-0.150;2022-09-12T09:11:14;101185.09;;;23.57;50.46
49063;BME280;34876;51.464;-0.150;2022-09-12T09:13:55;101184.23;;;23.62;50.30
49063;BME280;34876;51.464;-0.150;2022-09-12T09:16:31;101175.01;;;23.84;49.72
49063;BME280;34876;51.464;-0.150;2022-09-12T09:19:04;101169.00;;;23.81;49.75
49063;BME280;34876;51.464;-0.150;2022-09-12T09:21:41;101172.69;;;23.84;49.66
49063;BME280;34876;51.464;-0.150;2022-09-12T09:24:16;101174.71;;;23.83;49.69
49063;BME280;34876;51.464;-0.150;2022-09-12T09:26:52;101177.87;;;23.81;49.76
49063;BME280;34876;51.464;-0.150;2022-09-12T09:29:25;101181.77;;;23.71;50.16
49063;BME280;34876;51.464;-0.150;2022-09-12T09:31:58;101180.53;;;23.77;49.83
49063;BME280;34876;51.464;-0.150;2022-09-12T09:34:30;101178.67;;;23.79;49.77
49063;BME280;34876;51.464;-0.150;2022-09-12T09:37:03;101178.95;;;23.79;49.75
49063;BME280;34876;51.464;-0.150;2022-09-12T09:39:46;101178.81;;;23.72;49.97
49063;BME280;34876;51.464;-0.150;2022-09-12T09:42:26;101175.68;;;23.78;49.76
49063;BME280;34876;51.464;-0.150;2022-09-12T09:44:59;101168.55;;;23.77;49.90
49063;BME280;34876;51.464;-0.150;2022-09-12T09:47:30;101158.88;;;23.77;49.76
49063;BME280;34876;51.464;-0.150;2022-09-12T09:49:59;101152.08;;;23.85;49.55
49063;BME280;34876;51.464;-0.150;2022-09-12T09:52:29;101152.45;;;23.82;49.63
49063;BME280;34876;51.464;-0.150;2022-09-12T09:55:00;101143.76;;;24.09;48.92
49063;BME280;34876;51.464;-0.150;2022-09-12T09:57:45;101144.25;;;24.28;50.74
49063;BME280;34876;51.464;-0.150;2022-09-12T10:00:24;101146.91;;;24.39;48.56
49063;BME280;34876;51.464;-0.150;2022-09-12T10:03:04;101147.55;;;24.35;52.15
49063;BME280;34876;51.464;-0.150;2022-09-12T10:05:43;101146.27;;;24.28;50.76
49063;BME280;34876;51.464;-0.150;2022-09-12T10:08:20;101141.35;;;24.31;48.47
49063;BME280;34876;51.464;-0.150;2022-09-12T10:10:55;101137.43;;;24.28;52.17
49063;BME280;34876;51.464;-0.150;2022-09-12T10:13:32;101127.91;;;24.44;48.12
49063;BME280;34876;51.464;-0.150;2022-09-12T10:16:04;101119.13;;;24.09;48.94
49063;BME280;34876;51.464;-0.150;2022-09-12T10:18:37;101117.86;;;24.22;48.61
49063;BME280;34876;51.464;-0.150;2022-09-12T10:21:19;101115.63;;;24.32;48.99
49063;BME280;34876;51.464;-0.150;2022-09-12T10:23:52;101108.49;;;24.22;49.08
49063;BME280;34876;51.464;-0.150;2022-09-12T10:26:26;101114.49;;;24.25;48.71
49063;BME280;34876;51.464;-0.150;2022-09-12T10:29:09;101123.77;;;24.22;50.36
49063;BME280;34876;51.464;-0.150;2022-09-12T10:31:45;101121.91;;;24.31;51.62
49063;BME280;34876;51.464;-0.150;2022-09-12T10:34:24;101119.40;;;24.16;48.90
49063;BME280;34876;51.464;-0.150;2022-09-12T10:36:59;101116.58;;;24.19;51.88
49063;BME280;34876;51.464;-0.150;2022-09-12T10:39:29;101118.04;;;24.47;49.16
49063;BME280;34876;51.464;-0.150;2022-09-12T10:42:00;101116.47;;;24.49;51.18
49063;BME280;34876;51.464;-0.150;2022-09-12T10:44:31;101118.66;;;24.38;50.88
49063;BME280;34876;51.464;-0.150;2022-09-12T10:47:20;101119.21;;;24.38;49.86
49063;BME280;34876;51.464;-0.150;2022-09-12T10:49:49;101118.66;;;24.42;49.88
49063;BME280;34876;51.464;-0.150;2022-09-12T10:52:21;101114.24;;;24.41;48.42
49063;BME280;34876;51.464;-0.150;2022-09-12T10:54:51;101111.99;;;24.52;48.05
49063;BME280;34876;51.464;-0.150;2022-09-12T10:57:34;101107.49;;;24.58;47.67
49063;BME280;34876;51.464;-0.150;2022-09-12T11:00:10;101105.48;;;24.57;49.25
49063;BME280;34876;51.464;-0.150;2022-09-12T11:02:49;101104.04;;;24.69;48.87
49063;BME280;34876;51.464;-0.150;2022-09-12T11:05:36;101095.10;;;24.61;48.75
49063;BME280;34876;51.464;-0.150;2022-09-12T11:08:17;101093.14;;;24.68;47.61
49063;BME280;34876;51.464;-0.150;2022-09-12T11:10:58;101093.04;;;24.54;47.94
49063;BME280;34876;51.464;-0.150;2022-09-12T11:13:45;101096.06;;;24.38;48.16
49063;BME280;34876;51.464;-0.150;2022-09-12T11:16:24;101102.77;;;24.47;49.55
49063;BME280;34876;51.464;-0.150;2022-09-12T11:19:09;101097.83;;;24.58;47.94
49063;BME280;34876;51.464;-0.150;2022-09-12T11:21:51;101099.90;;;24.67;48.60
49063;BME280;34876;51.464;-0.150;2022-09-12T11:24:40;101105.37;;;24.66;48.72
49063;BME280;34876;51.464;-0.150;2022-09-12T11:27:28;101106.92;;;24.54;48.89
49063;BME280;34876;51.464;-0.150;2022-09-12T11:30:07;101109.00;;;24.59;49.90
49063;BME280;34876;51.464;-0.150;2022-09-12T11:33:19;101110.86;;;24.62;50.13
49063;BME280;34876;51.464;-0.150;2022-09-12T11:35:52;101110.85;;;24.64;47.70
49063;BME280;34876;51.464;-0.150;2022-09-12T11:38:36;101112.23;;;24.66;48.82
49063;BME280;34876;51.464;-0.150;2022-09-12T11:41:14;101108.53;;;24.82;48.65
49063;BME280;34876;51.464;-0.150;2022-09-12T11:43:49;101106.98;;;24.81;48.75
49063;BME280;34876;51.464;-0.150;2022-09-12T11:46:26;101105.28;;;24.73;48.17
49063;BME280;34876;51.464;-0.150;2022-09-12T11:49:03;101097.59;;;24.79;48.69
49063;BME280;34876;51.464;-0.150;2022-09-12T11:51:36;101095.60;;;24.81;48.28
49063;BME280;34876;51.464;-0.150;2022-09-12T11:54:14;101086.74;;;24.93;47.20
49063;BME280;34876;51.464;-0.150;2022-09-12T11:56:47;101089.82;;;24.68;47.36
49063;BME280;34876;51.464;-0.150;2022-09-12T11:59:30;101095.21;;;24.52;49.94
49063;BME280;34876;51.464;-0.150;2022-09-12T12:02:02;101095.24;;;24.55;50.24
49063;BME280;34876;51.464;-0.150;2022-09-12T12:04:38;101094.17;;;24.60;49.20
49063;BME280;34876;51.464;-0.150;2022-09-12T12:07:10;101086.99;;;24.40;49.84
49063;BME280;34876;51.464;-0.150;2022-09-12T12:09:46;101085.50;;;24.55;48.36
49063;BME280;34876;51.464;-0.150;2022-09-12T12:12:21;101082.80;;;24.61;47.70
49063;BME280;34876;51.464;-0.150;2022-09-12T12:14:53;101086.16;;;24.57;48.59
49063;BME280;34876;51.464;-0.150;2022-09-12T12:17:24;101081.20;;;24.91;49.52
49063;BME280;34876;51.464;-0.150;2022-09-12T12:19:59;101077.71;;;24.89;49.85
49063;BME280;34876;51.464;-0.150;2022-09-12T12:22:30;101074.41;;;24.94;48.17
49063;BME280;34876;51.464;-0.150;2022-09-12T12:25:14;101075.64;;;24.92;49.92
49063;BME280;34876;51.464;-0.150;2022-09-12T12:27:52;101072.73;;;24.95;49.80
49063;BME280;34876;51.464;-0.150;2022-09-12T12:30:58;101071.40;;;24.83;50.37
49063;BME280;34876;51.464;-0.150;2022-09-12T12:34:03;101068.35;;;24.97;47.75
49063;BME280;34876;51.464;-0.150;2022-09-12T12:36:37;101070.47;;;24.94;47.45
49063;BME280;34876;51.464;-0.150;2022-09-12T12:40:29;101060.85;;;24.81;48.36
49063;BME280;34876;51.464;-0.150;2022-09-12T12:43:04;101056.76;;;24.88;48.33
49063;BME280;34876;51.464;-0.150;2022-09-12T12:46:00;101056.15;;;24.85;48.71
49063;BME280;34876;51.464;-0.150;2022-09-12T12:48:42;101057.05;;;24.85;49.07
49063;BME280;34876;51.464;-0.150;2022-09-12T12:51:33;101054.81;;;24.88;47.98
49063;BME280;34876;51.464;-0.150;2022-09-12T12:54:25;101056.18;;;24.89;49.65
49063;BME280;34876;51.464;-0.150;2022-09-12T12:57:12;101049.00;;;24.93;48.61
49063;BME280;34876;51.464;-0.150;2022-09-12T12:59:47;101045.66;;;25.12;49.48
49063;BME280;34876;51.464;-0.150;2022-09-12T13:02:21;101039.59;;;25.19;48.70
49063;BME280;34876;51.464;-0.150;2022-09-12T13:04:51;101035.72;;;25.30;48.20
49063;BME280;34876;51.464;-0.150;2022-09-12T13:07:29;101030.07;;;25.15;47.85
49063;BME280;34876;51.464;-0.150;2022-09-12T13:10:00;101028.31;;;25.24;47.95
49063;BME280;34876;51.464;-0.150;2022-09-12T13:12:33;101024.89;;;25.17;47.86
49063;BME280;34876;51.464;-0.150;2022-09-12T13:15:40;101024.26;;;25.10;48.00
49063;BME280;34876;51.464;-0.150;2022-09-12T13:18:20;101026.28;;;25.03;48.16